createdAt,value
2023-02-11T00:01:47.895Z,76.10
2023-02-11T00:04:15.839Z,76.30
2023-02-11T00:06:43.750Z,77.80
2023-02-11T00:09:11.748Z,78.50
2023-02-11T00:11:39.417Z,77.80
2023-02-11T00:14:08.571Z,78.60
2023-02-11T00:16:36.363Z,78.60
2023-02-11T00:19:06.463Z,77.40
2023-02-11T00:21:34.794Z,78.50
2023-02-11T00:24:02.656Z,77.50
2023-02-11T00:26:33.301Z,77.40
2023-02-11T00:29:01.559Z,77.40
2023-02-11T00:31:32.762Z,77.00
2023-02-11T00:34:00.574Z,76.00
2023-02-11T00:36:30.024Z,77.00
2023-02-11T00:38:58.744Z,78.70
2023-02-11T00:41:26.646Z,79.20
2023-02-11T00:43:54.334Z,77.90
2023-02-11T00:46:22.459Z,77.10
2023-02-11T00:48:51.897Z,77.50
2023-02-11T00:51:22.377Z,77.30
2023-02-11T00:53:50.079Z,78.20
2023-02-11T00:56:17.911Z,77.80
2023-02-11T00:58:46.907Z,76.90
2023-02-11T01:01:14.709Z,76.40
2023-02-11T01:03:43.960Z,77.60
2023-02-11T01:06:12.174Z,78.40
2023-02-11T01:08:40.576Z,77.80
2023-02-11T01:11:16.173Z,77.80
2023-02-11T01:13:46.925Z,79.30
2023-02-11T01:16:15.340Z,79.80
2023-02-11T01:18:44.570Z,81.70
2023-02-11T01:21:13.682Z,82.80
2023-02-11T01:23:44.317Z,83.20
2023-02-11T01:26:13.017Z,83.90
2023-02-11T01:28:40.874Z,82.70
2023-02-11T01:31:11.290Z,80.80
2023-02-11T01:33:39.287Z,80.20
2023-02-11T01:36:08.089Z,79.60
2023-02-11T01:38:36.836Z,80.00
2023-02-11T01:41:08.082Z,80.60
2023-02-11T01:43:39.993Z,80.20
2023-02-11T01:46:14.640Z,79.50
2023-02-11T01:48:50.130Z,79.90
2023-02-11T01:51:24.978Z,81.70
2023-02-11T01:54:12.951Z,81.80
2023-02-11T01:57:03.617Z,81.20
2023-02-11T01:59:59.051Z,82.10
2023-02-11T02:02:33.796Z,82.10
2023-02-11T02:05:17.914Z,84.00
2023-02-11T02:07:58.946Z,83.80
2023-02-11T02:10:29.023Z,81.60
2023-02-11T02:12:57.447Z,81.50
2023-02-11T02:15:29.243Z,80.10
2023-02-11T02:18:02.460Z,79.10
2023-02-11T02:20:39.128Z,78.50
2023-02-11T02:23:12.543Z,79.10
2023-02-11T02:26:05.057Z,80.00
2023-02-11T02:28:45.982Z,80.70
2023-02-11T02:31:55.987Z,80.20
2023-02-11T02:34:34.251Z,81.20
2023-02-11T02:37:13.082Z,81.20
2023-02-11T02:39:40.854Z,82.70
2023-02-11T02:42:09.347Z,82.70
2023-02-11T02:44:36.982Z,83.40
2023-02-11T02:47:04.589Z,84.50
2023-02-11T02:49:32.236Z,84.60
2023-02-11T02:52:14.818Z,84.20
2023-02-11T02:54:53.639Z,82.50
2023-02-11T02:57:37.927Z,83.20
2023-02-11T03:00:15.631Z,82.40
2023-02-11T03:02:50.073Z,81.80
2023-02-11T03:05:45.010Z,82.20
2023-02-11T03:08:16.696Z,84.40
2023-02-11T03:10:51.197Z,83.70
2023-02-11T03:13:24.414Z,83.50
2023-02-11T03:15:55.905Z,82.70
2023-02-11T03:18:27.846Z,84.20
2023-02-11T03:20:58.261Z,84.60
2023-02-11T03:23:53.647Z,84.20
2023-02-11T03:26:51.261Z,84.70
2023-02-11T03:29:41.252Z,83.60
2023-02-11T03:32:29.192Z,83.30
2023-02-11T03:35:21.749Z,83.00
2023-02-11T03:37:54.577Z,84.60
2023-02-11T03:40:26.649Z,84.90
2023-02-11T03:42:59.639Z,85.20
2023-02-11T03:45:28.814Z,85.20
2023-02-11T03:48:04.129Z,86.30
2023-02-11T03:50:34.213Z,87.70
2023-02-11T03:53:03.223Z,88.00
2023-02-11T03:55:33.805Z,88.20
2023-02-11T03:58:01.695Z,88.30
2023-02-11T04:00:39.761Z,86.70
2023-02-11T04:03:08.717Z,85.50
2023-02-11T04:05:36.633Z,85.40
2023-02-11T04:08:05.098Z,85.20
2023-02-11T04:10:32.975Z,84.80
2023-02-11T04:13:01.312Z,85.60
2023-02-11T04:15:29.172Z,85.00
2023-02-11T04:17:56.993Z,86.00
2023-02-11T04:20:24.761Z,86.30
2023-02-11T04:22:52.350Z,86.90
2023-02-11T04:25:19.981Z,86.50
2023-02-11T04:27:47.631Z,86.40
2023-02-11T04:30:15.363Z,86.80
2023-02-11T04:32:43.078Z,88.20
2023-02-11T04:35:10.784Z,89.60
2023-02-11T04:37:38.375Z,87.60
2023-02-11T04:40:06.923Z,88.40
2023-02-11T04:42:34.527Z,88.90
2023-02-11T04:45:02.117Z,89.20
2023-02-11T04:47:30.164Z,89.50
2023-02-11T04:49:57.758Z,88.20
2023-02-11T04:52:25.686Z,87.30
2023-02-11T04:54:53.283Z,87.50
2023-02-11T04:57:20.912Z,88.20
2023-02-11T04:59:48.990Z,88.40
2023-02-11T05:02:16.580Z,88.10
2023-02-11T05:04:44.194Z,87.30
2023-02-11T05:07:12.568Z,87.20
2023-02-11T05:09:40.130Z,86.80
2023-02-11T05:12:08.232Z,86.60
2023-02-11T05:14:35.968Z,86.60
2023-02-11T05:17:04.066Z,86.30
2023-02-11T05:19:32.139Z,87.40
2023-02-11T05:22:03.072Z,87.50
2023-02-11T05:24:34.603Z,87.80
2023-02-11T05:27:02.574Z,87.90
2023-02-11T05:29:30.113Z,89.50
2023-02-11T05:32:00.193Z,89.90
2023-02-11T05:34:28.959Z,89.20
2023-02-11T05:36:57.431Z,90.70
2023-02-11T05:39:24.986Z,91.10
2023-02-11T05:41:52.640Z,91.10
2023-02-11T05:44:20.813Z,90.60
2023-02-11T05:46:49.652Z,89.40
2023-02-11T05:49:18.388Z,89.30
2023-02-11T05:51:46.273Z,88.70
2023-02-11T05:54:14.284Z,90.20
2023-02-11T05:56:44.913Z,90.20
2023-02-11T05:59:15.044Z,89.80
2023-02-11T06:01:43.186Z,90.10
2023-02-11T06:04:10.929Z,90.60
2023-02-11T06:06:38.888Z,90.10
2023-02-11T06:09:06.554Z,90.10
2023-02-11T06:11:34.076Z,90.20
2023-02-11T06:14:01.809Z,90.60
2023-02-11T06:16:29.542Z,90.60
2023-02-11T06:18:58.303Z,88.70
2023-02-11T06:21:36.360Z,88.30
2023-02-11T06:24:10.461Z,88.50
2023-02-11T06:26:38.272Z,88.40
2023-02-11T06:29:06.149Z,87.90
2023-02-11T06:31:33.957Z,89.20
2023-02-11T06:34:01.557Z,90.50
2023-02-11T06:36:29.953Z,90.30
2023-02-11T06:38:57.577Z,90.40
2023-02-11T06:41:25.248Z,90.30
2023-02-11T06:43:53.288Z,89.90
2023-02-11T06:46:21.100Z,89.60
2023-02-11T06:48:48.938Z,90.50
2023-02-11T06:51:16.772Z,90.10
2023-02-11T06:53:49.154Z,90.50
2023-02-11T06:56:20.062Z,88.60
2023-02-11T06:58:48.012Z,85.90
2023-02-11T07:01:16.880Z,83.10
2023-02-11T07:03:45.654Z,81.20
2023-02-11T07:06:16.239Z,78.30
2023-02-11T07:08:46.156Z,79.80
2023-02-11T07:11:15.157Z,79.60
2023-02-11T07:13:43.714Z,78.70
2023-02-11T07:16:14.365Z,77.40
2023-02-11T07:18:43.813Z,74.90
2023-02-11T07:21:13.809Z,75.00
2023-02-11T07:23:42.488Z,74.00
2023-02-11T07:26:19.535Z,73.60
2023-02-11T07:28:52.763Z,75.30
2023-02-11T07:31:25.771Z,74.10
2023-02-11T07:33:57.749Z,73.70
2023-02-11T07:36:25.517Z,73.70
2023-02-11T07:38:53.382Z,75.60
2023-02-11T07:41:24.222Z,74.80
2023-02-11T07:43:52.786Z,77.70
2023-02-11T07:46:23.862Z,77.80
2023-02-11T07:48:52.528Z,78.30
2023-02-11T07:51:25.649Z,79.60
2023-02-11T07:53:53.964Z,79.50
2023-02-11T07:56:23.403Z,78.50
2023-02-11T07:58:51.559Z,76.80
2023-02-11T08:01:32.429Z,74.30
2023-02-11T08:04:03.652Z,73.00
2023-02-11T08:06:35.583Z,72.20
2023-02-11T08:09:09.562Z,72.40
2023-02-11T08:11:38.843Z,73.10
2023-02-11T08:14:09.796Z,73.50
2023-02-11T08:16:41.727Z,75.70
2023-02-11T08:19:14.147Z,76.80
2023-02-11T08:21:42.782Z,77.90
2023-02-11T08:24:13.031Z,77.50
2023-02-11T08:26:41.178Z,76.80
2023-02-11T08:29:13.475Z,75.80
2023-02-11T08:31:43.804Z,73.60
2023-02-11T08:34:14.312Z,74.80
2023-02-11T08:36:42.867Z,74.90
2023-02-11T08:39:21.229Z,75.10
2023-02-11T08:41:59.015Z,76.20
2023-02-11T08:44:26.945Z,76.20
2023-02-11T08:46:54.696Z,76.50
2023-02-11T08:49:22.927Z,77.00
2023-02-11T08:51:50.640Z,76.50
2023-02-11T08:54:18.195Z,74.80
2023-02-11T08:56:45.759Z,74.90
2023-02-11T08:59:15.444Z,75.10
2023-02-11T09:01:44.342Z,75.30
2023-02-11T09:04:12.318Z,74.80
2023-02-11T09:06:39.914Z,74.60
2023-02-11T09:09:13.574Z,75.40
2023-02-11T09:11:42.617Z,75.80
2023-02-11T09:14:20.972Z,76.50
2023-02-11T09:16:49.420Z,75.80
2023-02-11T09:19:17.608Z,76.40
2023-02-11T09:21:45.260Z,75.50
2023-02-11T09:24:17.363Z,73.20
2023-02-11T09:26:45.280Z,73.50
2023-02-11T09:29:13.767Z,73.60
2023-02-11T09:31:41.967Z,73.60
2023-02-11T09:34:18.023Z,70.20
2023-02-11T09:36:52.975Z,66.50
2023-02-11T09:55:13.808Z,65.80
2023-02-11T09:58:07.021Z,65.80
2023-02-11T10:05:01.322Z,65.80
2023-02-11T10:19:39.974Z,67.50
2023-02-11T11:01:23.424Z,63.80
2023-02-11T11:12:18.272Z,61.60
2023-02-11T11:15:01.916Z,60.80
2023-02-11T11:17:29.984Z,61.40
2023-02-11T11:20:22.025Z,60.20
2023-02-11T11:22:54.870Z,58.80
2023-02-11T11:25:35.500Z,57.90
2023-02-11T11:28:11.165Z,57.40
2023-02-11T11:30:49.712Z,57.80
2023-02-11T11:33:26.300Z,58.40
2023-02-11T11:36:34.284Z,56.80
2023-02-11T11:39:47.786Z,55.40
2023-02-11T11:42:37.435Z,54.40
2023-02-11T11:45:06.511Z,54.60
2023-02-11T11:48:04.364Z,53.10
2023-02-11T11:51:05.853Z,54.60
2023-02-11T11:53:53.430Z,55.80
2023-02-11T11:56:27.612Z,54.80
2023-02-11T11:58:58.645Z,54.80
2023-02-11T12:01:53.005Z,55.20
2023-02-11T12:04:45.748Z,55.60
2023-02-11T12:08:03.729Z,53.60
2023-02-11T12:10:47.739Z,51.30
2023-02-11T12:13:56.909Z,48.60
2023-02-11T12:16:52.364Z,45.40
2023-02-11T12:19:56.700Z,47.50
2023-02-11T12:22:35.820Z,49.30
2023-02-11T12:25:03.372Z,49.50
2023-02-11T12:27:57.940Z,50.50
2023-02-11T12:30:54.524Z,51.10
2023-02-11T12:33:57.685Z,51.70
2023-02-11T12:37:07.921Z,51.00
2023-02-11T12:40:14.758Z,50.90
2023-02-11T12:43:02.639Z,51.40
2023-02-11T12:46:09.930Z,49.80
2023-02-11T12:49:13.147Z,49.60
2023-02-11T12:52:02.286Z,48.30
2023-02-11T12:54:58.526Z,45.70
2023-02-11T12:57:41.903Z,44.40
2023-02-11T13:00:45.736Z,43.90
2023-02-11T13:03:30.569Z,41.60
2023-02-11T13:06:18.583Z,38.90
2023-02-11T13:08:54.331Z,37.10
2023-02-11T13:11:35.502Z,38.40
2023-02-11T13:14:14.381Z,40.00
2023-02-11T13:16:43.809Z,43.50
2023-02-11T13:19:23.648Z,45.40
2023-02-11T13:22:00.382Z,44.50
2023-02-11T13:25:02.929Z,42.70
2023-02-11T13:27:59.476Z,40.40
2023-02-11T13:30:35.116Z,39.70
2023-02-11T13:33:05.137Z,38.50
2023-02-11T13:35:47.859Z,36.90
2023-02-11T13:38:22.637Z,36.80
2023-02-11T13:41:18.467Z,36.10
2023-02-11T13:44:25.342Z,35.20
2023-02-11T13:47:07.190Z,36.20
2023-02-11T13:49:50.914Z,36.80
2023-02-11T13:52:30.579Z,38.10
2023-02-11T13:55:17.795Z,39.70
2023-02-11T13:58:11.365Z,42.10
2023-02-11T14:00:39.575Z,45.30
2023-02-11T14:03:30.495Z,46.40
2023-02-11T14:06:34.202Z,47.40
2023-02-11T14:09:14.154Z,50.10
2023-02-11T14:11:47.537Z,50.20
2023-02-11T14:14:35.414Z,51.40
2023-02-11T14:17:22.227Z,50.90
2023-02-11T14:20:07.766Z,50.90
2023-02-11T14:23:02.125Z,51.60
2023-02-11T14:25:33.878Z,52.40
2023-02-11T14:28:25.436Z,52.90
2023-02-11T14:31:13.316Z,52.50
2023-02-11T14:34:19.733Z,52.60
2023-02-11T14:37:12.294Z,53.00
2023-02-11T14:40:26.083Z,53.30
2023-02-11T14:43:15.028Z,53.00
2023-02-11T14:46:02.290Z,52.60
2023-02-11T14:49:04.582Z,53.40
2023-02-11T14:51:42.139Z,54.20
2023-02-11T14:54:25.465Z,53.70
2023-02-11T14:57:38.332Z,54.70
2023-02-11T15:00:25.185Z,54.30
2023-02-11T15:03:00.876Z,54.20
2023-02-11T15:05:32.129Z,54.00
2023-02-11T15:08:06.531Z,53.80
2023-02-11T15:10:42.209Z,53.50
2023-02-11T15:13:33.245Z,54.20
2023-02-11T15:16:24.182Z,53.90
2023-02-11T15:19:41.471Z,53.90
2023-02-11T15:22:24.031Z,53.60
2023-02-11T15:25:10.888Z,53.10
2023-02-11T15:27:43.564Z,53.60
2023-02-11T15:30:33.235Z,54.30
2023-02-11T15:33:23.623Z,55.10
2023-02-11T15:36:00.404Z,54.30
2023-02-11T15:38:34.563Z,54.80
2023-02-11T15:41:07.610Z,54.30
2023-02-11T15:43:47.604Z,54.80
2023-02-11T15:46:20.097Z,55.00
2023-02-11T15:48:56.607Z,55.40
2023-02-11T15:51:43.317Z,56.20
2023-02-11T15:54:26.892Z,56.90
2023-02-11T15:57:05.012Z,57.50
2023-02-11T15:59:55.356Z,57.90
2023-02-11T16:02:40.319Z,58.50
2023-02-11T16:05:24.469Z,59.10
2023-02-11T16:07:56.362Z,60.10
2023-02-11T16:10:40.386Z,61.20
2023-02-11T16:13:11.108Z,62.60
2023-02-11T16:15:59.799Z,63.70
2023-02-11T16:18:37.638Z,64.70
2023-02-11T16:21:13.759Z,65.20
2023-02-11T16:23:44.563Z,66.30
2023-02-11T16:26:35.559Z,67.70
2023-02-11T16:29:12.946Z,68.80
2023-02-11T16:31:43.552Z,69.20
2023-02-11T16:34:23.055Z,70.00
2023-02-11T16:36:52.567Z,71.30
2023-02-11T16:39:23.783Z,70.80
2023-02-11T16:41:52.478Z,71.30
2023-02-11T16:44:19.995Z,71.30
2023-02-11T16:46:48.362Z,71.40
2023-02-11T16:49:23.581Z,72.00
2023-02-11T16:51:54.004Z,72.30
2023-02-11T16:54:21.542Z,73.20
2023-02-11T16:56:49.087Z,73.70
2023-02-11T16:59:16.659Z,74.20
2023-02-11T17:01:45.813Z,74.50
2023-02-11T17:04:19.122Z,74.10
2023-02-11T17:06:48.234Z,74.70
2023-02-11T17:09:20.049Z,75.30
2023-02-11T17:11:47.961Z,75.70
2023-02-11T17:14:15.816Z,76.00
2023-02-11T17:16:46.399Z,76.30
2023-02-11T17:19:16.982Z,77.00
2023-02-11T17:21:46.209Z,76.90
2023-02-11T17:24:16.953Z,77.10
2023-02-11T17:26:45.302Z,77.00
2023-02-11T17:29:21.247Z,77.60
2023-02-11T17:31:49.067Z,77.80
2023-02-11T17:34:17.526Z,77.80
2023-02-11T17:36:45.399Z,78.00
2023-02-11T17:39:13.012Z,78.10
2023-02-11T17:41:41.224Z,77.60
2023-02-11T17:44:10.764Z,78.00
2023-02-11T17:46:40.940Z,77.40
2023-02-11T17:49:08.404Z,77.90
2023-02-11T17:51:38.394Z,79.00
2023-02-11T17:54:14.664Z,78.70
2023-02-11T17:56:43.339Z,79.30
2023-02-11T17:59:12.267Z,79.70
2023-02-11T18:01:42.015Z,80.20
2023-02-11T18:04:14.404Z,79.90
2023-02-11T18:06:42.815Z,80.10
2023-02-11T18:09:11.297Z,80.40
2023-02-11T18:11:40.118Z,80.40
2023-02-11T18:14:08.596Z,80.30
2023-02-11T18:16:40.779Z,80.40
2023-02-11T18:19:09.440Z,80.60
2023-02-11T18:21:37.721Z,80.60
2023-02-11T18:24:06.956Z,80.50
2023-02-11T18:26:36.024Z,80.40
2023-02-11T18:29:05.285Z,80.40
2023-02-11T18:31:34.116Z,80.30
2023-02-11T18:34:07.784Z,80.80
2023-02-11T18:36:37.004Z,80.60
2023-02-11T18:39:05.262Z,81.20
2023-02-11T18:41:33.437Z,81.60
2023-02-11T18:44:03.204Z,82.30
2023-02-11T18:46:31.415Z,82.30
2023-02-11T18:48:58.984Z,82.70
2023-02-11T18:51:27.162Z,83.20
2023-02-11T18:53:56.347Z,83.50
2023-02-11T18:56:28.100Z,83.60
2023-02-11T18:59:01.494Z,83.90
2023-02-11T19:01:31.471Z,83.10
2023-02-11T19:04:03.847Z,83.60
2023-02-11T19:06:36.604Z,84.10
2023-02-11T19:09:09.989Z,84.30
2023-02-11T19:11:50.394Z,84.10
2023-02-11T19:14:39.093Z,84.20
2023-02-11T19:17:07.807Z,84.60
2023-02-11T19:19:36.653Z,84.70
2023-02-11T19:22:08.523Z,84.90
2023-02-11T19:24:37.734Z,85.60
2023-02-11T19:27:13.157Z,85.70
2023-02-11T19:29:42.392Z,85.90
2023-02-11T19:32:10.829Z,85.80
2023-02-11T19:34:41.670Z,85.90
2023-02-11T19:37:12.704Z,86.60
2023-02-11T19:39:41.465Z,86.90
2023-02-11T19:42:09.066Z,86.80
2023-02-11T19:44:36.569Z,86.60
2023-02-11T19:47:04.510Z,86.80
2023-02-11T19:49:32.116Z,87.70
2023-02-11T19:51:59.712Z,87.80
2023-02-11T19:54:29.219Z,88.40
2023-02-11T19:56:58.196Z,88.60
2023-02-11T19:59:25.988Z,89.30
2023-02-11T20:01:54.152Z,90.00
2023-02-11T20:04:21.784Z,90.20
2023-02-11T20:06:50.451Z,90.30
2023-02-11T20:09:18.004Z,90.30
2023-02-11T20:11:45.603Z,90.80
2023-02-11T20:14:15.381Z,91.10
2023-02-11T20:16:49.147Z,91.40
2023-02-11T20:19:22.155Z,91.50
2023-02-11T20:21:53.830Z,91.60
2023-02-11T20:24:22.306Z,91.90
2023-02-11T20:26:51.980Z,92.10
2023-02-11T20:29:19.513Z,92.20
2023-02-11T20:31:48.743Z,92.20
2023-02-11T20:34:18.250Z,92.10
2023-02-11T20:36:52.340Z,91.90
2023-02-11T20:39:22.384Z,91.80
2023-02-11T20:41:50.882Z,91.90
2023-02-11T20:44:18.875Z,92.00
2023-02-11T20:46:46.843Z,91.90
2023-02-11T20:49:16.750Z,91.90
2023-02-11T20:51:45.230Z,92.00
2023-02-11T20:54:18.261Z,92.30
2023-02-11T20:56:48.065Z,92.30
2023-02-11T20:59:16.899Z,92.30
2023-02-11T21:01:47.928Z,91.80
2023-02-11T21:04:19.883Z,91.50
2023-02-11T21:06:49.868Z,91.40
2023-02-11T21:09:20.018Z,91.60
2023-02-11T21:11:48.816Z,91.80
2023-02-11T21:14:16.338Z,91.80
2023-02-11T21:16:43.886Z,92.20
2023-02-11T21:19:12.114Z,92.60
2023-02-11T21:21:39.980Z,92.70
2023-02-11T21:24:08.818Z,93.00
2023-02-11T21:26:37.588Z,93.00
2023-02-11T21:29:09.478Z,93.00
2023-02-11T21:31:38.106Z,92.90
2023-02-11T21:34:06.683Z,93.00
2023-02-11T21:36:34.714Z,93.10
2023-02-11T21:39:03.974Z,93.20
2023-02-11T21:41:32.135Z,93.00
2023-02-11T21:43:59.623Z,93.30
2023-02-11T21:46:27.553Z,93.30
2023-02-11T21:48:55.047Z,93.50
2023-02-11T21:51:24.752Z,93.70
2023-02-11T21:54:01.533Z,93.60
2023-02-11T21:56:31.109Z,93.70
2023-02-11T21:59:00.286Z,93.80
2023-02-11T22:01:32.290Z,94.00
2023-02-11T22:04:00.199Z,94.10
2023-02-11T22:06:31.580Z,94.50
2023-02-11T22:09:04.410Z,94.90
2023-02-11T22:11:31.913Z,95.20
2023-02-11T22:13:59.821Z,95.60
2023-02-11T22:16:33.623Z,95.40
2023-02-11T22:19:02.580Z,95.40
2023-02-11T22:21:30.231Z,95.20
2023-02-11T22:23:57.812Z,94.90
2023-02-11T22:26:27.254Z,94.90
2023-02-11T22:28:56.380Z,95.00
2023-02-11T22:31:27.595Z,95.30
2023-02-11T22:33:55.568Z,95.30
2023-02-11T22:36:37.489Z,94.70
2023-02-11T22:39:17.820Z,94.50
2023-02-11T22:41:51.880Z,95.20
2023-02-11T22:44:20.676Z,95.10
2023-02-11T22:46:48.153Z,95.30
2023-02-11T22:49:17.346Z,95.00
2023-02-11T22:51:45.142Z,95.20
2023-02-11T22:54:15.019Z,94.80
2023-02-11T22:59:38.116Z,95.30
2023-02-11T23:08:12.681Z,95.40
2023-02-11T23:10:40.472Z,94.90
2023-02-11T23:13:10.530Z,95.00
2023-02-11T23:15:48.229Z,95.20
2023-02-11T23:18:17.033Z,95.20
2023-02-11T23:20:45.111Z,95.30
2023-02-11T23:23:12.738Z,95.40
2023-02-11T23:25:44.470Z,95.50
2023-02-11T23:28:12.513Z,95.60
2023-02-11T23:30:41.363Z,95.70
2023-02-11T23:33:13.426Z,95.60
2023-02-11T23:35:41.015Z,95.60
2023-02-11T23:38:08.480Z,95.60
2023-02-11T23:40:35.964Z,95.70
2023-02-11T23:43:03.510Z,95.50
2023-02-11T23:45:31.427Z,95.50
2023-02-11T23:47:59.021Z,95.80
2023-02-11T23:50:26.487Z,95.90
2023-02-11T23:52:54.266Z,95.90
2023-02-11T23:55:24.892Z,96.00
2023-02-11T23:57:55.636Z,96.00
